Flight Track Log - Related Links

Times and Time Zones

All times are in EST time to prevent confusion due to time zone crossing. See the N589H flight status page for this flight to view local times or setup timezone preferences in your user account.

Time Position Orientation Groundspeed Altitude Reporting Facility
EST Latitude Longitude Course Direction KTS MPH feet Rate Location/Type
Sun 02:06:41 PM 25.0594 -77.4256 38° Northeast 208 239 2,300  Level Miami Center
Sun 02:07:41 PM 25.1178 -77.4211 North 130 150 3,800 1,700 Climbing Miami Center
Sun 02:08:41 PM 25.1744 -77.3983 20° North 167 192 5,700 2,000 Climbing Miami Center
Sun 02:09:41 PM 25.2289 -77.3689 26° Northeast 198 228 7,800 1,850 Climbing Miami Center
Sun 02:10:41 PM 25.2833 -77.3392 26° Northeast 203 234 9,400 1,300 Climbing Miami Center
Sun 02:11:00 PM 25.5437 -77.1775 27° Northeast  Level FlightAware Approximate
Sun 02:11:41 PM 25.3461 -77.3072 25° Northeast 224 258 10,400  Level Miami Center
Sun 02:12:41 PM 25.4192 -77.2661 27° Northeast 256 295 11,500 1,700 Climbing Miami Center
Sun 02:13:41 PM 25.4906 -77.2364 21° North 271 312 13,800 2,000 Climbing Miami Center
Sun 02:14:41 PM 25.5594 -77.2503 350° North 255 293 15,500 1,650 Climbing Miami Center
Sun 02:15:41 PM 25.6325 -77.2622 352° North 255 293 17,100 1,550 Climbing Miami Center
Sun 02:16:41 PM 25.7056 -77.2669 357° North 255 293 18,600 1,400 Climbing Miami Center
Sun 02:17:41 PM 25.7786 -77.2742 355° North 255 293 19,900 1,300 Climbing Miami Center
Sun 02:18:41 PM 25.8622 -77.2792 357° North 270 311 21,200 1,350 Climbing Miami Center
Sun 02:19:41 PM 25.9417 -77.2839 357° North 282 325 22,600 1,400 Climbing Miami Center
Sun 02:20:41 PM 26.0253 -77.2911 356° North 287 330 24,000 1,300 Climbing Miami Center
Sun 02:21:41 PM 26.1047 -77.2961 357° North 293 337 25,200 1,200 Climbing Miami Center
Sun 02:22:41 PM 26.1944 -77.3033 356° North 298 343 26,400 1,100 Climbing Miami Center
Sun 02:23:41 PM 26.2822 -77.3061 358° North 304 350 27,400 1,000 Climbing Miami Center
Sun 02:24:41 PM 26.3719 -77.3133 356° North 315 362 28,400 1,000 Climbing Miami Center
Sun 02:25:41 PM 26.4681 -77.3183 357° North 315 362 29,400 1,150 Climbing Miami Center
Sun 02:26:41 PM 26.5558 -77.3186 360° North 315 362 30,700 800 Climbing Miami Center
Sun 02:27:41 PM 26.6436 -77.3258 356° North 309 356 31,000 150 Climbing Miami Center
Sun 02:28:41 PM 26.7397 -77.3356 355° North 317 365 31,000  Level Miami Center
Sun 02:29:41 PM 26.8233 -77.3406 357° North 332 382 31,000  Level Miami Center
Sun 02:30:41 PM 26.9192 -77.3456 357° North 332 382 31,000  Level Miami Center
Sun 02:31:41 PM 27.0447 -77.3556 356° North 370 426 31,000  Level Miami Center
Sun 02:32:41 PM 27.1364 -77.3722 351° North 370 426 31,000  Level Miami Center
Sun 02:33:41 PM 27.2556 -77.3633 North 370 426 31,000  Level Miami Center
Sun 02:34:41 PM 27.3494 -77.3847 349° North 370 426 31,000  Level Miami Center
Sun 02:35:41 PM 27.4664 -77.3900 358° North 370 426 31,000  Level Miami Center
Sun 02:36:41 PM 27.5728 -77.3953 357° North 368 423 31,000  Level Miami Center
Sun 02:37:41 PM 27.6836 -77.4050 356° North 390 449 31,000  Level Miami Center
Sun 02:38:41 PM 27.7881 -77.4103 357° North 383 441 31,000  Level Miami Center
Sun 02:39:41 PM 27.8964 -77.4178 356° North 383 441 31,000  Level Miami Center
Sun 02:40:41 PM 28.0031 -77.4256 356° North 383 441 31,000  Level Miami Center
Sun 02:41:41 PM 28.1136 -77.4308 358° North 378 435 31,000 100 Level Miami Center
Sun 02:42:41 PM 28.2139 -77.4406 355° North 385 443 31,200 350 Climbing Miami Center
Sun 02:43:41 PM 28.3181 -77.4483 356° North 380 437 31,700 500 Climbing Miami Center
Sun 02:44:41 PM 28.4183 -77.4536 357° North 369 425 32,200 550 Climbing Miami Center
Sun 02:45:41 PM 28.5186 -77.4611 356° North 358 412 32,800 400 Climbing Miami Center
Sun 02:46:41 PM 28.6125 -77.4664 357° North 347 399 33,000 100 Climbing Miami Center
Sun 02:47:41 PM 28.7125 -77.4739 356° North 352 405 33,000  Level Miami Center
Sun 02:48:41 PM 28.8128 -77.4792 357° North 357 411 33,000  Level Miami Center
Sun 02:49:41 PM 28.9025 -77.4892 354° North 363 418 33,000  Level Miami Center
Sun 02:50:41 PM 29.0047 -77.4944 357° North 363 418 33,000  Level Miami Center
Sun 02:51:41 PM 29.1047 -77.5022 356° North 363 418 33,000  Level Miami Center
Sun 02:52:41 PM 29.1631 -77.5050 358° North 363 418 33,000  Level Miami Center
Sun 02:54:41 PM 29.4364 -77.5256 356° North 372 428 33,000  Level Miami Center
Sun 02:56:30 PM 29.6133 -77.5303 359° North 360 414 33,000  Level Jacksonville Center
Sun 02:57:30 PM 29.7178 -77.5364 357° North 376 433 33,000  Level Jacksonville Center
Sun 02:58:30 PM 29.8308 -77.5469 355° North 381 438 33,000  Level Jacksonville Center
Sun 02:59:30 PM 29.9356 -77.5531 357° North 386 444 33,000  Level Jacksonville Center
Sun 03:00:30 PM 30.0422 -77.5617 356° North 386 444 33,000  Level Jacksonville Center
Sun 03:01:30 PM 30.1492 -77.5678 357° North 386 444 33,000  Level Jacksonville Center
Sun 03:02:30 PM 30.2597 -77.5689 360° North 386 444 33,000  Level Jacksonville Center
Sun 03:03:30 PM 30.3667 -77.5844 353° North 386 444 33,000  Level Jacksonville Center
Sun 03:04:30 PM 30.4731 -77.5811 North 386 444 33,000  Level Jacksonville Center
Sun 03:05:30 PM 30.5800 -77.5919 355° North 387 445 33,000  Level Jacksonville Center
Sun 03:06:30 PM 30.6867 -77.6006 356° North 380 437 33,000  Level Jacksonville Center
Sun 03:07:30 PM 30.7936 -77.6114 355° North 385 443 33,000  Level Jacksonville Center
Sun 03:08:30 PM 30.9003 -77.6153 358° North 386 444 33,000  Level Jacksonville Center
Sun 03:09:30 PM 31.0072 -77.6261 355° North 382 440 33,000  Level Jacksonville Center
Sun 03:10:30 PM 31.1158 -77.6322 357° North 388 447 33,000  Level Jacksonville Center
Sun 03:11:30 PM 31.2228 -77.6408 356° North 388 447 33,000  Level Jacksonville Center
Sun 03:12:30 PM 31.3275 -77.6472 357° North 377 434 33,000  Level Jacksonville Center
Sun 03:13:30 PM 31.4342 -77.6533 357° North 381 438 33,000  Level Jacksonville Center
Sun 03:14:30 PM 31.5428 -77.6594 357° North 388 447 33,000  Level Jacksonville Center
Sun 03:15:30 PM 31.6494 -77.6656 357° North 374 430 33,000  Level Jacksonville Center
Sun 03:16:30 PM 31.7544 -77.6767 355° North 380 437 33,000  Level Jacksonville Center
Sun 03:17:30 PM 31.8633 -77.6853 356° North 380 437 33,000  Level Jacksonville Center
Sun 03:18:30 PM 31.9700 -77.6939 356° North 385 443 33,000  Level Jacksonville Center
Sun 03:19:30 PM 32.0769 -77.7050 355° North 385 443 33,000  Level Jacksonville Center
Sun 03:20:30 PM 32.1856 -77.7061 360° North 385 443 33,000  Level Jacksonville Center
Sun 03:21:30 PM 32.2903 -77.7150 356° North 385 443 33,000  Level Jacksonville Center
Sun 03:22:30 PM 32.3992 -77.7261 355° North 385 443 33,000  Level Jacksonville Center
Sun 03:23:30 PM 32.5061 -77.7347 356° North 385 443 33,000  Level Jacksonville Center
Sun 03:24:30 PM 32.6128 -77.7433 356° North 385 443 33,000  Level Jacksonville Center
Sun 03:25:30 PM 32.7194 -77.7497 357° North 385 443 33,000  Level Jacksonville Center
Sun 03:26:30 PM 32.8264 -77.7583 356° North 385 443 33,000  Level Jacksonville Center
Sun 03:27:30 PM 32.9331 -77.7672 356° North 385 443 33,000  Level Jacksonville Center
Sun 03:28:30 PM 33.0378 -77.7761 356° North 385 443 33,000  Level Jacksonville Center
Sun 03:30:35 PM 33.2506 -77.7917 357° North 393 452 33,000  Level Washington Center
Sun 03:31:36 PM 33.3589 -77.7994 357° North 388 447 33,000  Level Washington Center
Sun 03:32:36 PM 33.4631 -77.8069 357° North 383 441 33,000  Level Washington Center
Sun 03:33:36 PM 33.5711 -77.8175 355° North 383 441 33,000  Level Washington Center
Sun 03:34:37 PM 33.6794 -77.8253 357° North 383 441 33,000  Level Washington Center
Sun 03:35:35 PM 33.7858 -77.8331 357° North 383 441 33,000  Level Washington Center
Sun 03:36:36 PM 33.8942 -77.8411 356° North 383 441 33,000  Level Washington Center
Sun 03:37:37 PM 34.0044 -77.8489 357° North 389 448 33,000  Level Washington Center
Sun 03:38:35 PM 34.1086 -77.8569 356° North 389 448 33,000  Level Washington Center
Sun 03:39:35 PM 34.2169 -77.8672 356° North 384 442 33,000  Level Washington Center
Sun 03:40:36 PM 34.3358 -77.8756 357° North 390 449 33,000  Level Washington Center
Sun 03:41:37 PM 34.4464 -77.8711 North 390 449 33,000  Level Washington Center
Sun 03:42:37 PM 34.5594 -77.8567 North 390 449 33,000  Level Washington Center
Sun 03:43:35 PM 34.6703 -77.8447 North 395 455 33,000  Level Washington Center
Sun 03:44:35 PM 34.7808 -77.8325 North 395 455 33,000  Level Washington Center
Sun 03:45:36 PM 34.8792 -77.8200 North 395 455 33,000  Level Washington Center
Sun 03:46:37 PM 34.9900 -77.8103 North 395 455 33,000  Level Washington Center
Sun 03:47:38 PM 35.1031 -77.7956 North 395 455 33,000  Level Washington Center
Sun 03:48:36 PM 35.2139 -77.7833 North 400 460 33,000  Level Washington Center
Sun 03:49:37 PM 35.3231 -77.7483 15° North 400 460 33,000  Level Washington Center
Sun 03:50:37 PM 35.4322 -77.6978 21° North 405 466 33,000  Level Washington Center
Sun 03:51:37 PM 35.5439 -77.6444 21° North 415 478 33,000  Level Washington Center
Sun 03:52:35 PM 35.6531 -77.5961 20° North 415 478 33,000  Level Washington Center
Sun 03:53:36 PM 35.7625 -77.5503 19° North 415 478 33,000 -198 Level Washington Center
Sun 03:54:36 PM 35.8739 -77.5017 19° North 415 478 32,600 -645 Descending Washington Center
Sun 03:55:37 PM 35.9853 -77.4506 20° North 415 478 31,700 -1,160 Descending Washington Center
Sun 03:56:35 PM 36.1133 -77.3969 19° North 424 488 30,300 -1,311 Descending Washington Center
Sun 03:57:36 PM 36.2203 -77.3478 20° North 424 488 29,100 -1,131 Descending Washington Center
Sun 03:58:37 PM 36.3294 -77.3014 19° North 418 481 28,000 -1,210 Descending Washington Center
Sun 03:59:35 PM 36.4389 -77.2494 21° North 418 481 26,700 -1,424 Descending Washington Center
Sun 04:00:35 PM 36.5478 -77.2028 19° North 411 473 25,200 -1,328 Descending Washington Center
Sun 04:01:37 PM 36.6528 -77.1531 21° North 406 467 24,000 -1,082 Descending Washington Center
Sun 04:02:37 PM 36.7558 -77.1058 20° North 396 456 23,000 -1,017 Descending Washington Center
Sun 04:03:35 PM 36.8586 -77.0611 19° North 391 450 22,000 -1,008 Descending Washington Center
Sun 04:04:36 PM 36.9550 -77.0161 20° North 381 438 21,000 -1,041 Descending Washington Center
Sun 04:05:36 PM 37.0514 -76.9736 19° North 371 427 19,900 -1,041 Descending Washington Center
Sun 04:06:37 PM 37.1417 -76.9311 21° North 364 419 18,900 -1,041 Descending Washington Center
Sun 04:07:37 PM 37.2339 -76.8908 19° North 354 407 17,800 -966 Descending Washington Center
Sun 04:08:35 PM 37.3156 -76.8558 19° North 335 386 17,000 -403 Descending Washington Center
Sun 04:09:36 PM 37.4100 -76.8103 21° North 351 404 17,000 -49 Level Washington Center
Sun 04:10:37 PM 37.5022 -76.7647 21° North 351 404 16,900  Descending Washington Center
Sun 04:11:37 PM 37.5903 -76.7267 19° North 351 404 17,000 -203 Climbing Washington Center
Sun 04:12:35 PM 37.6822 -76.6833 20° North 351 404 16,500 -1,043 Descending Washington Center
Sun 04:13:32 PM 37.7722 -76.6453 18° North 337 388 15,000 -1,400 Descending Washington Center
Sun 04:13:35 PM 37.7722 -76.6428 90° East 345 397 15,100 -1,433 Climbing Washington Center
Sun 04:14:39 PM 37.8750 -76.5967 19° North 340 391 13,400 -1,388 Descending Washington Center
Sun 04:15:36 PM 37.9461 -76.5608 22° Northeast 340 391 12,300 -1,300 Descending Washington Center
Sun 04:15:39 PM 37.9628 -76.5558 13° North 334 384 12,100 -1,300 Descending Washington Center
Sun 04:16:36 PM 38.0300 -76.5222 21° North 329 379 11,000 -1,238 Descending Washington Center
Sun 04:16:42 PM 38.0467 -76.5200 North 321 369 10,800 -1,522 Descending Washington Center
Sun 04:17:43 PM 38.1344 -76.4761 21° North 317 365 9,300 -1,252 Descending Washington Center
Sun 04:18:37 PM 38.1972 -76.4425 23° Northeast 317 365 8,400 -1,180 Descending Washington Center
Sun 04:18:44 PM 38.2181 -76.4400 North 320 368 8,100 -1,241 Descending Washington Center
Sun 04:19:35 PM 38.2872 -76.4011 24° Northeast 312 359 7,200 -889 Descending Washington Center
Sun 04:19:38 PM 38.2892 -76.4064 295° West 312 359 7,300 -571 Climbing Washington Center
Sun 04:19:56 PM 38.3122 -76.3936 24° Northeast 288 331 7,000 -310 Descending Washington Center
Sun 04:20:36 PM 38.3667 -76.3808 10° North 299 344 7,000  Level Washington Center
Sun 04:20:39 PM 38.3708 -76.3783 25° Northeast 293 337 7,000  Level Washington Center
Sun 04:21:37 PM 38.4461 -76.3553 13° North 283 326 7,000  Level Washington Center
Sun 04:22:35 PM 38.5192 -76.3347 12° North 282 325 7,000  Level Washington Center
Sun 04:25:05 PM 38.7167 -76.3000 North 265 305 7,000 -257 Level Potomac TRACON
Sun 04:26:05 PM 38.7833 -76.3000 360° North 268 308 6,100 -1,200 Descending Potomac TRACON
Sun 04:27:05 PM 38.8500 -76.3167 349° North 260 299 4,600 -1,100 Descending Potomac TRACON
Sun 04:28:05 PM 38.9333 -76.3167 360° North 263 303 3,900 -800 Descending Potomac TRACON
Sun 04:29:05 PM 39.0000 -76.3333 349° North 263 303 3,000 -474 Descending Potomac TRACON
Sun 04:29:59 PM 39.0500 -76.3833 322° Northwest 230 265 3,000 -350 Level Potomac TRACON
Sun 04:31:05 PM 39.1000 -76.4333 322° Northwest 220 253 2,300 -476 Descending Potomac TRACON
Sun 04:32:05 PM 39.1333 -76.5000 303° West 224 258 2,000 -158 Descending Potomac TRACON
Sun 04:32:59 PM 39.1667 -76.5667 303° West 229 264 2,000 -417 Level Potomac TRACON
Sun 04:34:00 PM 39.2000 -76.6167 311° West 195 224 1,200 -472 Descending Potomac TRACON
Sun 04:35:06 PM 39.2167 -76.6833 288° West 138 159 1,000 -182 Descending Potomac TRACON
Sun 04:37:00 PM 39.1754 -76.6683 166° South  Level Estimated
Sun 04:44:00 PM 39.1754 -76.6683 166° South  Level Estimated

Login

Don't have an account? Register now (free) for customized features, flight alerts, and more!